createdAt,value
2023-01-17T00:02:19.944Z,100.00
2023-01-17T00:05:05.282Z,100.00
2023-01-17T00:07:52.121Z,100.00
2023-01-17T00:10:21.662Z,100.00
2023-01-17T00:12:50.766Z,100.00
2023-01-17T00:15:20.191Z,100.00
2023-01-17T00:17:50.092Z,100.00
2023-01-17T00:20:41.441Z,100.00
2023-01-17T00:23:34.226Z,100.00
2023-01-17T00:26:05.458Z,100.00
2023-01-17T00:28:34.505Z,100.00
2023-01-17T00:31:01.995Z,100.00
2023-01-17T00:33:29.958Z,100.00
2023-01-17T00:36:00.116Z,100.00
2023-01-17T00:38:29.955Z,100.00
2023-01-17T00:41:03.256Z,100.00
2023-01-17T00:43:50.075Z,100.00
2023-01-17T00:46:41.233Z,100.00
2023-01-17T00:49:27.438Z,100.00
2023-01-17T00:52:13.059Z,100.00
2023-01-17T00:54:58.579Z,100.00
2023-01-17T00:57:47.176Z,100.00
2023-01-17T01:00:37.617Z,100.00
2023-01-17T01:03:30.152Z,100.00
2023-01-17T01:06:16.045Z,100.00
2023-01-17T01:09:01.743Z,100.00
2023-01-17T01:11:47.214Z,100.00
2023-01-17T01:14:32.654Z,100.00
2023-01-17T01:17:18.376Z,100.00
2023-01-17T01:20:04.010Z,100.00
2023-01-17T01:22:49.638Z,100.00
2023-01-17T01:25:35.577Z,100.00
2023-01-17T01:28:26.924Z,100.00
2023-01-17T01:31:15.274Z,100.00
2023-01-17T01:33:42.477Z,100.00
2023-01-17T01:36:10.184Z,100.00
2023-01-17T01:38:38.428Z,100.00
2023-01-17T01:41:06.433Z,100.00
2023-01-17T01:43:57.349Z,100.00
2023-01-17T01:46:28.100Z,100.00
2023-01-17T01:49:04.516Z,100.00
2023-01-17T01:51:36.948Z,100.00
2023-01-17T01:54:09.944Z,100.00
2023-01-17T01:56:38.468Z,100.00
2023-01-17T01:59:11.474Z,100.00
2023-01-17T02:01:38.758Z,100.00
2023-01-17T02:04:10.205Z,100.00
2023-01-17T02:06:41.775Z,100.00
2023-01-17T02:09:12.723Z,100.00
2023-01-17T02:11:44.921Z,100.00
2023-01-17T02:14:20.071Z,100.00
2023-01-17T02:17:01.329Z,100.00
2023-01-17T02:19:46.539Z,100.00
2023-01-17T02:22:35.283Z,100.00
2023-01-17T02:25:08.274Z,100.00
2023-01-17T02:27:52.740Z,100.00
2023-01-17T02:30:31.912Z,100.00
2023-01-17T02:33:22.671Z,100.00
2023-01-17T02:36:05.688Z,100.00
2023-01-17T02:38:58.583Z,100.00
2023-01-17T02:41:31.243Z,100.00
2023-01-17T02:44:01.067Z,100.00
2023-01-17T02:46:28.091Z,100.00
2023-01-17T02:48:58.486Z,100.00
2023-01-17T02:51:54.502Z,100.00
2023-01-17T02:54:32.438Z,100.00
2023-01-17T02:57:55.292Z,100.00
2023-01-17T03:00:52.712Z,100.00
2023-01-17T03:03:24.359Z,100.00
2023-01-17T03:05:57.584Z,100.00
2023-01-17T03:08:26.139Z,100.00
2023-01-17T03:10:54.216Z,100.00
2023-01-17T03:13:21.801Z,100.00
2023-01-17T03:15:49.330Z,100.00
2023-01-17T03:18:17.162Z,100.00
2023-01-17T03:20:47.032Z,100.00
2023-01-17T03:23:14.218Z,100.00
2023-01-17T03:25:41.204Z,100.00
2023-01-17T03:28:08.344Z,100.00
2023-01-17T03:30:36.627Z,100.00
2023-01-17T03:33:03.587Z,100.00
2023-01-17T03:35:30.990Z,100.00
2023-01-17T03:38:01.066Z,100.00
2023-01-17T03:40:28.233Z,100.00
2023-01-17T03:42:55.245Z,100.00
2023-01-17T03:45:22.598Z,100.00
2023-01-17T03:47:50.123Z,100.00
2023-01-17T03:50:17.426Z,100.00
2023-01-17T03:52:45.016Z,100.00
2023-01-17T03:55:12.061Z,100.00
2023-01-17T03:57:39.293Z,100.00
2023-01-17T04:00:07.896Z,100.00
2023-01-17T04:02:34.992Z,100.00
2023-01-17T04:05:01.967Z,100.00
2023-01-17T04:07:29.220Z,100.00
2023-01-17T04:09:56.372Z,100.00
2023-01-17T04:12:23.468Z,100.00
2023-01-17T04:14:50.351Z,100.00
2023-01-17T04:17:20.996Z,100.00
2023-01-17T04:19:48.122Z,100.00
2023-01-17T04:22:15.385Z,100.00
2023-01-17T04:24:42.634Z,100.00
2023-01-17T04:27:14.516Z,100.00
2023-01-17T04:29:41.859Z,100.00
2023-01-17T04:32:08.793Z,100.00
2023-01-17T04:34:35.944Z,100.00
2023-01-17T04:37:03.345Z,100.00
2023-01-17T04:39:30.266Z,100.00
2023-01-17T04:41:57.455Z,100.00
2023-01-17T04:44:24.715Z,100.00
2023-01-17T04:46:54.798Z,100.00
2023-01-17T04:49:21.814Z,100.00
2023-01-17T04:51:48.962Z,100.00
2023-01-17T04:54:16.009Z,100.00
2023-01-17T04:56:42.927Z,100.00
2023-01-17T04:59:10.372Z,100.00
2023-01-17T05:01:37.387Z,100.00
2023-01-17T05:04:04.876Z,100.00
2023-01-17T05:06:32.470Z,100.00
2023-01-17T05:08:59.681Z,100.00
2023-01-17T05:11:26.561Z,100.00
2023-01-17T05:13:53.917Z,100.00
2023-01-17T05:16:21.207Z,100.00
2023-01-17T05:18:53.280Z,100.00
2023-01-17T05:21:22.350Z,100.00
2023-01-17T05:23:52.618Z,100.00
2023-01-17T05:26:19.756Z,100.00
2023-01-17T05:28:47.316Z,100.00
2023-01-17T05:31:14.623Z,100.00
2023-01-17T05:33:42.141Z,100.00
2023-01-17T05:36:09.508Z,100.00
2023-01-17T05:38:36.527Z,100.00
2023-01-17T05:41:05.205Z,100.00
2023-01-17T05:43:31.998Z,100.00
2023-01-17T05:45:59.141Z,100.00
2023-01-17T05:48:26.245Z,100.00
2023-01-17T05:50:53.812Z,100.00
2023-01-17T05:53:23.817Z,100.00
2023-01-17T05:55:51.022Z,100.00
2023-01-17T05:58:21.402Z,100.00
2023-01-17T06:00:51.951Z,100.00
2023-01-17T06:03:19.366Z,100.00
2023-01-17T06:05:47.584Z,100.00
2023-01-17T06:08:14.635Z,100.00
2023-01-17T06:10:41.986Z,100.00
2023-01-17T06:13:13.185Z,100.00
2023-01-17T06:15:41.225Z,100.00
2023-01-17T06:18:14.584Z,100.00
2023-01-17T06:20:45.207Z,100.00
2023-01-17T06:23:13.969Z,100.00
2023-01-17T06:25:43.889Z,100.00
2023-01-17T06:28:12.539Z,100.00
2023-01-17T06:30:40.134Z,100.00
2023-01-17T06:33:07.198Z,100.00
2023-01-17T06:35:34.389Z,100.00
2023-01-17T06:38:01.384Z,100.00
2023-01-17T06:40:29.542Z,100.00
2023-01-17T06:43:02.026Z,100.00
2023-01-17T06:45:31.634Z,100.00
2023-01-17T06:48:00.324Z,100.00
2023-01-17T06:50:27.474Z,100.00
2023-01-17T06:52:59.947Z,100.00
2023-01-17T06:55:31.354Z,100.00
2023-01-17T06:57:59.987Z,100.00
2023-01-17T07:00:29.309Z,100.00
2023-01-17T07:02:56.329Z,100.00
2023-01-17T07:05:23.690Z,100.00
2023-01-17T07:07:50.864Z,100.00
2023-01-17T07:10:19.057Z,100.00
2023-01-17T07:12:47.679Z,100.00
2023-01-17T07:15:14.583Z,100.00
2023-01-17T07:17:42.572Z,100.00
2023-01-17T07:20:10.215Z,100.00
2023-01-17T07:22:37.916Z,100.00
2023-01-17T07:25:06.398Z,100.00
2023-01-17T07:27:33.777Z,100.00
2023-01-17T07:30:01.229Z,100.00
2023-01-17T07:32:29.782Z,100.00
2023-01-17T07:34:59.404Z,100.00
2023-01-17T07:37:26.654Z,100.00
2023-01-17T07:39:54.749Z,100.00
2023-01-17T07:42:24.219Z,100.00
2023-01-17T07:44:54.360Z,100.00
2023-01-17T07:47:21.585Z,100.00
2023-01-17T07:49:48.743Z,100.00
2023-01-17T07:52:18.067Z,100.00
2023-01-17T07:54:46.894Z,100.00
2023-01-17T07:57:13.870Z,100.00
2023-01-17T07:59:40.927Z,100.00
2023-01-17T08:02:20.068Z,100.00
2023-01-17T08:04:48.459Z,100.00
2023-01-17T08:07:17.250Z,100.00
2023-01-17T08:09:44.722Z,100.00
2023-01-17T08:12:11.712Z,100.00
2023-01-17T08:14:38.768Z,100.00
2023-01-17T08:17:17.833Z,100.00
2023-01-17T08:19:45.390Z,100.00
2023-01-17T08:22:12.641Z,100.00
2023-01-17T08:24:39.517Z,100.00
2023-01-17T08:27:06.513Z,100.00
2023-01-17T08:29:33.403Z,100.00
2023-01-17T08:32:00.787Z,100.00
2023-01-17T08:34:29.042Z,100.00
2023-01-17T08:36:56.426Z,100.00
2023-01-17T08:39:27.902Z,100.00
2023-01-17T08:41:54.821Z,100.00
2023-01-17T08:44:22.886Z,100.00
2023-01-17T08:46:53.144Z,100.00
2023-01-17T08:49:22.047Z,100.00
2023-01-17T08:51:52.748Z,100.00
2023-01-17T08:54:22.396Z,100.00
2023-01-17T08:56:52.857Z,100.00
2023-01-17T08:59:19.868Z,100.00
2023-01-17T09:01:47.048Z,100.00
2023-01-17T09:04:14.790Z,100.00
2023-01-17T09:06:46.632Z,100.00
2023-01-17T09:09:15.712Z,100.00
2023-01-17T09:11:43.034Z,100.00
2023-01-17T09:14:12.467Z,100.00
2023-01-17T09:16:39.632Z,100.00
2023-01-17T09:19:07.428Z,100.00
2023-01-17T09:21:34.513Z,100.00
2023-01-17T09:24:01.626Z,100.00
2023-01-17T09:26:30.439Z,100.00
2023-01-17T09:28:58.660Z,100.00
2023-01-17T09:31:27.401Z,100.00
2023-01-17T09:33:55.600Z,100.00
2023-01-17T09:36:23.088Z,100.00
2023-01-17T09:38:50.505Z,100.00
2023-01-17T09:41:46.327Z,100.00
2023-01-17T09:44:25.231Z,100.00
2023-01-17T09:46:55.725Z,100.00
2023-01-17T09:49:42.561Z,100.00
2023-01-17T09:52:19.553Z,100.00
2023-01-17T09:54:48.687Z,100.00
2023-01-17T09:57:35.146Z,100.00
2023-01-17T10:00:26.879Z,100.00
2023-01-17T10:03:17.789Z,100.00
2023-01-17T10:06:08.071Z,100.00
2023-01-17T10:09:15.266Z,100.00
2023-01-17T10:12:04.759Z,100.00
2023-01-17T10:14:50.959Z,100.00
2023-01-17T10:17:43.915Z,100.00
2023-01-17T10:20:34.423Z,100.00
2023-01-17T10:23:22.197Z,100.00
2023-01-17T10:25:55.116Z,100.00
2023-01-17T10:28:35.327Z,100.00
2023-01-17T10:31:10.682Z,100.00
2023-01-17T10:33:52.087Z,100.00
2023-01-17T10:36:21.676Z,100.00
2023-01-17T10:38:53.852Z,100.00
2023-01-17T10:41:42.348Z,100.00
2023-01-17T10:44:28.604Z,100.00
2023-01-17T10:47:11.223Z,100.00
2023-01-17T10:49:42.865Z,100.00
2023-01-17T10:52:24.244Z,100.00
2023-01-17T10:55:10.235Z,100.00
2023-01-17T10:57:41.145Z,100.00
2023-01-17T11:00:40.082Z,100.00
2023-01-17T11:03:07.305Z,100.00
2023-01-17T11:05:34.524Z,100.00
2023-01-17T11:08:07.402Z,100.00
2023-01-17T11:10:50.580Z,100.00
2023-01-17T11:13:22.700Z,100.00
2023-01-17T11:15:53.563Z,100.00
2023-01-17T11:18:22.124Z,100.00
2023-01-17T11:20:50.083Z,100.00
2023-01-17T11:23:31.362Z,100.00
2023-01-17T11:26:05.009Z,100.00
2023-01-17T11:28:37.079Z,100.00
2023-01-17T11:31:08.965Z,100.00
2023-01-17T11:33:56.107Z,100.00
2023-01-17T11:36:31.100Z,100.00
2023-01-17T11:39:06.596Z,100.00
2023-01-17T11:41:39.409Z,100.00
2023-01-17T11:44:31.120Z,100.00
2023-01-17T11:47:19.457Z,100.00
2023-01-17T11:49:51.539Z,100.00
2023-01-17T11:52:33.197Z,100.00
2023-01-17T11:55:01.383Z,100.00
2023-01-17T11:57:35.831Z,100.00
2023-01-17T12:00:32.482Z,100.00
2023-01-17T12:03:39.176Z,100.00
2023-01-17T12:06:51.517Z,100.00
2023-01-17T12:09:40.077Z,100.00
2023-01-17T12:12:34.685Z,100.00
2023-01-17T12:15:30.560Z,100.00
2023-01-17T12:18:14.251Z,100.00
2023-01-17T12:20:46.790Z,100.00
2023-01-17T12:23:27.269Z,100.00
2023-01-17T12:26:27.818Z,100.00
2023-01-17T12:29:00.396Z,100.00
2023-01-17T12:31:44.196Z,100.00
2023-01-17T12:34:43.360Z,100.00
2023-01-17T12:37:10.616Z,100.00
2023-01-17T12:39:43.653Z,100.00
2023-01-17T12:42:24.316Z,100.00
2023-01-17T12:44:58.074Z,100.00
2023-01-17T12:47:26.051Z,100.00
2023-01-17T12:50:20.540Z,100.00
2023-01-17T12:53:03.071Z,100.00
2023-01-17T12:55:57.800Z,100.00
2023-01-17T12:58:31.208Z,100.00
2023-01-17T13:01:19.120Z,100.00
2023-01-17T13:04:15.500Z,100.00
2023-01-17T13:07:00.293Z,100.00
2023-01-17T13:09:38.432Z,100.00
2023-01-17T13:12:19.809Z,100.00
2023-01-17T13:14:47.850Z,100.00
2023-01-17T13:17:18.271Z,100.00
2023-01-17T13:20:30.826Z,100.00
2023-01-17T13:23:08.903Z,100.00
2023-01-17T13:25:49.566Z,100.00
2023-01-17T13:28:57.287Z,100.00
2023-01-17T13:31:35.000Z,100.00
2023-01-17T13:34:41.320Z,99.47
2023-01-17T13:37:40.885Z,94.20
2023-01-17T13:40:31.207Z,96.60
2023-01-17T13:43:04.585Z,97.76
2023-01-17T13:45:37.282Z,98.85
2023-01-17T13:48:27.902Z,98.29
2023-01-17T13:51:09.050Z,97.45
2023-01-17T13:53:37.129Z,95.70
2023-01-17T13:56:19.481Z,95.57
2023-01-17T13:58:49.051Z,95.79
2023-01-17T14:01:22.606Z,94.92
2023-01-17T14:03:53.101Z,96.71
2023-01-17T14:06:40.741Z,96.66
2023-01-17T14:09:19.002Z,97.66
2023-01-17T14:11:58.510Z,98.27
2023-01-17T14:14:57.055Z,99.81
2023-01-17T14:17:52.524Z,98.30
2023-01-17T14:20:25.706Z,97.39
2023-01-17T14:23:00.587Z,96.84
2023-01-17T14:25:39.002Z,96.57
2023-01-17T14:28:31.585Z,94.02
2023-01-17T14:31:00.945Z,93.22
2023-01-17T14:33:31.114Z,93.96
2023-01-17T14:36:03.289Z,95.58
2023-01-17T14:38:33.320Z,94.38
2023-01-17T14:41:09.917Z,94.37
2023-01-17T14:43:41.255Z,92.82
2023-01-17T14:46:17.720Z,90.01
2023-01-17T14:48:44.614Z,93.05
2023-01-17T14:51:21.619Z,92.72
2023-01-17T14:54:03.318Z,92.32
2023-01-17T14:56:31.294Z,91.83
2023-01-17T14:59:24.525Z,89.84
2023-01-17T15:02:07.535Z,91.84
2023-01-17T15:04:40.063Z,94.68
2023-01-17T15:07:07.817Z,93.47
2023-01-17T15:09:38.759Z,93.22
2023-01-17T15:12:14.900Z,92.28
2023-01-17T15:14:46.502Z,91.70
2023-01-17T15:17:24.656Z,93.79
2023-01-17T15:19:57.501Z,94.79
2023-01-17T15:22:26.162Z,94.20
2023-01-17T15:24:54.811Z,94.97
2023-01-17T15:27:22.143Z,93.02
2023-01-17T15:29:49.515Z,92.72
2023-01-17T15:32:28.150Z,91.92
2023-01-17T15:34:55.480Z,92.80
2023-01-17T15:37:31.664Z,92.90
2023-01-17T15:40:20.216Z,95.88
2023-01-17T15:42:54.338Z,95.74
2023-01-17T15:45:35.219Z,95.75
2023-01-17T15:48:33.870Z,97.56
2023-01-17T15:51:00.912Z,99.25
2023-01-17T15:53:34.505Z,100.00
2023-01-17T15:56:18.522Z,100.00
2023-01-17T15:58:50.161Z,100.00
2023-01-17T16:01:27.723Z,100.00
2023-01-17T16:03:55.569Z,100.00
2023-01-17T16:06:36.238Z,100.00
2023-01-17T16:09:07.410Z,100.00
2023-01-17T16:11:34.135Z,100.00
2023-01-17T16:14:01.990Z,100.00
2023-01-17T16:16:29.149Z,100.00
2023-01-17T16:19:01.413Z,100.00
2023-01-17T16:21:30.942Z,100.00
2023-01-17T16:23:59.393Z,100.00
2023-01-17T16:26:29.509Z,100.00
2023-01-17T16:28:56.596Z,100.00
2023-01-17T16:31:23.715Z,100.00
2023-01-17T16:33:52.556Z,100.00
2023-01-17T16:36:21.133Z,100.00
2023-01-17T16:38:49.861Z,100.00
2023-01-17T16:41:17.829Z,100.00
2023-01-17T16:43:45.121Z,100.00
2023-01-17T16:46:12.594Z,100.00
2023-01-17T16:48:39.802Z,100.00
2023-01-17T16:51:08.479Z,100.00
2023-01-17T16:53:36.038Z,100.00
2023-01-17T16:56:11.988Z,100.00
2023-01-17T16:58:39.468Z,100.00
2023-01-17T17:01:11.396Z,100.00
2023-01-17T17:03:38.458Z,100.00
2023-01-17T17:06:05.653Z,100.00
2023-01-17T17:08:35.250Z,100.00
2023-01-17T17:11:16.612Z,100.00
2023-01-17T17:13:49.507Z,100.00
2023-01-17T17:16:20.951Z,100.00
2023-01-17T17:18:55.606Z,100.00
2023-01-17T17:21:22.651Z,100.00
2023-01-17T17:23:57.082Z,100.00
2023-01-17T17:26:35.750Z,100.00
2023-01-17T17:29:04.719Z,100.00
2023-01-17T17:31:31.991Z,100.00
2023-01-17T17:34:02.962Z,100.00
2023-01-17T17:36:31.605Z,100.00
2023-01-17T17:38:58.584Z,100.00
2023-01-17T17:41:28.228Z,100.00
2023-01-17T17:43:55.543Z,100.00
2023-01-17T17:46:24.061Z,100.00
2023-01-17T17:48:51.321Z,100.00
2023-01-17T17:51:40.688Z,100.00
2023-01-17T17:54:14.940Z,100.00
2023-01-17T17:56:46.731Z,100.00
2023-01-17T17:59:18.291Z,100.00
2023-01-17T18:01:46.294Z,100.00
2023-01-17T18:04:13.460Z,100.00
2023-01-17T18:06:41.082Z,100.00
2023-01-17T18:09:09.782Z,100.00
2023-01-17T18:11:40.215Z,100.00
2023-01-17T18:14:10.647Z,100.00
2023-01-17T18:16:43.334Z,100.00
2023-01-17T18:19:25.535Z,100.00
2023-01-17T18:21:53.635Z,100.00
2023-01-17T18:24:23.205Z,100.00
2023-01-17T18:26:57.284Z,100.00
2023-01-17T18:29:26.560Z,100.00
2023-01-17T18:31:54.266Z,100.00
2023-01-17T18:34:28.677Z,100.00
2023-01-17T18:36:55.899Z,100.00
2023-01-17T18:39:27.154Z,100.00
2023-01-17T18:41:56.272Z,100.00
2023-01-17T18:44:23.555Z,100.00
2023-01-17T18:46:52.777Z,100.00
2023-01-17T18:49:19.806Z,100.00
2023-01-17T18:51:51.504Z,100.00
2023-01-17T18:54:20.414Z,100.00
2023-01-17T18:56:48.726Z,100.00
2023-01-17T18:59:18.577Z,100.00
2023-01-17T19:01:45.721Z,100.00
2023-01-17T19:04:14.274Z,100.00
2023-01-17T19:06:43.003Z,100.00
2023-01-17T19:09:11.136Z,100.00
2023-01-17T19:11:39.570Z,100.00
2023-01-17T19:14:07.260Z,100.00
2023-01-17T19:16:39.265Z,100.00
2023-01-17T19:19:09.432Z,100.00
2023-01-17T19:21:36.692Z,100.00
2023-01-17T19:24:04.171Z,100.00
2023-01-17T19:26:31.322Z,100.00
2023-01-17T19:29:01.911Z,100.00
2023-01-17T19:31:30.876Z,100.00
2023-01-17T19:33:59.800Z,100.00
2023-01-17T19:36:29.457Z,100.00
2023-01-17T19:39:04.933Z,100.00
2023-01-17T19:41:34.793Z,100.00
2023-01-17T19:44:07.141Z,100.00
2023-01-17T19:46:35.488Z,100.00
2023-01-17T19:49:03.825Z,100.00
2023-01-17T19:51:30.847Z,100.00
2023-01-17T19:54:01.989Z,100.00
2023-01-17T19:56:30.594Z,100.00
2023-01-17T19:59:01.336Z,100.00
2023-01-17T20:01:32.190Z,100.00
2023-01-17T20:04:01.574Z,100.00
2023-01-17T20:06:31.104Z,100.00
2023-01-17T20:08:58.249Z,100.00
2023-01-17T20:11:26.708Z,100.00
2023-01-17T20:13:55.877Z,100.00
2023-01-17T20:16:24.417Z,100.00
2023-01-17T20:18:53.167Z,100.00
2023-01-17T20:21:21.120Z,100.00
2023-01-17T20:23:50.631Z,100.00
2023-01-17T20:26:21.862Z,100.00
2023-01-17T20:28:54.628Z,100.00
2023-01-17T20:31:25.049Z,100.00
2023-01-17T20:33:54.342Z,100.00
2023-01-17T20:36:25.435Z,100.00
2023-01-17T20:38:54.520Z,100.00
2023-01-17T20:41:31.060Z,100.00
2023-01-17T20:44:01.883Z,100.00
2023-01-17T20:46:33.507Z,100.00
2023-01-17T20:49:05.925Z,100.00
2023-01-17T20:51:34.611Z,100.00
2023-01-17T20:54:03.824Z,100.00
2023-01-17T20:56:34.954Z,100.00
2023-01-17T20:59:07.736Z,100.00
2023-01-17T21:01:35.221Z,100.00
2023-01-17T21:04:03.316Z,100.00
2023-01-17T21:06:31.318Z,100.00
2023-01-17T21:09:00.133Z,100.00
2023-01-17T21:11:30.868Z,100.00
2023-01-17T21:13:58.199Z,100.00
2023-01-17T21:16:28.110Z,100.00
2023-01-17T21:18:55.534Z,100.00
2023-01-17T21:21:25.342Z,100.00
2023-01-17T21:23:54.830Z,100.00
2023-01-17T21:26:22.831Z,100.00
2023-01-17T21:28:50.986Z,100.00
2023-01-17T21:31:30.002Z,100.00
2023-01-17T21:34:04.275Z,100.00
2023-01-17T21:36:33.981Z,100.00
2023-01-17T21:39:04.981Z,100.00
2023-01-17T21:41:35.818Z,100.00
2023-01-17T21:44:08.953Z,100.00
2023-01-17T21:46:40.473Z,100.00
2023-01-17T21:49:10.856Z,100.00
2023-01-17T21:51:53.203Z,100.00
2023-01-17T21:54:58.020Z,100.00
2023-01-17T21:57:43.513Z,100.00
2023-01-17T22:00:18.471Z,100.00
2023-01-17T22:02:47.872Z,100.00
2023-01-17T22:05:18.737Z,100.00
2023-01-17T22:08:06.125Z,100.00
2023-01-17T22:10:44.524Z,100.00
2023-01-17T22:13:16.569Z,100.00
2023-01-17T22:15:44.746Z,100.00
2023-01-17T22:18:15.638Z,100.00
2023-01-17T22:20:44.532Z,100.00
2023-01-17T22:23:12.040Z,100.00
2023-01-17T22:25:38.703Z,100.00
2023-01-17T22:28:05.768Z,100.00
2023-01-17T22:30:33.734Z,100.00
2023-01-17T22:33:01.483Z,100.00
2023-01-17T22:35:28.392Z,100.00
2023-01-17T22:37:56.693Z,100.00
2023-01-17T22:40:23.734Z,100.00
2023-01-17T22:42:50.699Z,100.00
2023-01-17T22:45:20.471Z,100.00
2023-01-17T22:47:47.207Z,100.00
2023-01-17T22:50:14.297Z,100.00
2023-01-17T22:52:41.634Z,100.00
2023-01-17T22:55:12.410Z,100.00
2023-01-17T22:57:39.528Z,100.00
2023-01-17T23:00:14.747Z,100.00
2023-01-17T23:02:43.556Z,100.00
2023-01-17T23:05:10.734Z,100.00
2023-01-17T23:07:44.114Z,100.00
2023-01-17T23:10:39.506Z,100.00
2023-01-17T23:13:10.083Z,100.00
2023-01-17T23:15:59.415Z,100.00
2023-01-17T23:18:44.714Z,100.00
2023-01-17T23:21:13.043Z,100.00
2023-01-17T23:23:40.077Z,100.00
2023-01-17T23:26:07.622Z,100.00
2023-01-17T23:28:34.527Z,100.00
2023-01-17T23:31:04.023Z,100.00
2023-01-17T23:33:30.831Z,100.00
2023-01-17T23:35:57.803Z,100.00
2023-01-17T23:38:29.742Z,100.00
2023-01-17T23:41:26.335Z,100.00
2023-01-17T23:43:55.394Z,100.00
2023-01-17T23:46:24.491Z,100.00
2023-01-17T23:48:52.541Z,100.00
2023-01-17T23:51:19.497Z,100.00
2023-01-17T23:53:46.692Z,100.00
2023-01-17T23:56:17.385Z,100.00
2023-01-17T23:58:45.593Z,100.00
